sensor_id;sensor_type;location;lat;lon;timestamp;pressure;altitude;pressure_sealevel;temperature;humidity
788;BME280;16074;42.708;23.312;2024-01-06T00:00:17;95003.59;;;5.28;79.18
788;BME280;16074;42.708;23.312;2024-01-06T00:02:43;95005.19;;;5.29;79.66
788;BME280;16074;42.708;23.312;2024-01-06T00:05:08;95013.69;;;5.37;79.43
788;BME280;16074;42.708;23.312;2024-01-06T00:07:34;95000.13;;;5.44;79.77
788;BME280;16074;42.708;23.312;2024-01-06T00:09:59;94991.81;;;5.33;79.42
788;BME280;16074;42.708;23.312;2024-01-06T00:12:24;94983.94;;;5.35;79.31
788;BME280;16074;42.708;23.312;2024-01-06T00:14:50;94986.00;;;5.39;79.56
788;BME280;16074;42.708;23.312;2024-01-06T00:17:16;94991.28;;;5.46;78.79
788;BME280;16074;42.708;23.312;2024-01-06T00:19:42;95006.13;;;5.36;79.44
788;BME280;16074;42.708;23.312;2024-01-06T00:22:08;95019.59;;;5.46;79.99
788;BME280;16074;42.708;23.312;2024-01-06T00:24:33;95017.84;;;5.47;79.24
788;BME280;16074;42.708;23.312;2024-01-06T00:26:58;95021.56;;;5.44;79.17
788;BME280;16074;42.708;23.312;2024-01-06T00:29:24;95013.34;;;5.40;79.23
788;BME280;16074;42.708;23.312;2024-01-06T00:31:49;95009.94;;;5.48;79.51
788;BME280;16074;42.708;23.312;2024-01-06T00:34:14;95009.44;;;5.53;79.70
788;BME280;16074;42.708;23.312;2024-01-06T00:36:40;95026.06;;;5.42;79.06
788;BME280;16074;42.708;23.312;2024-01-06T00:39:05;95024.34;;;5.34;78.45
788;BME280;16074;42.708;23.312;2024-01-06T00:41:30;95011.97;;;5.30;79.01
788;BME280;16074;42.708;23.312;2024-01-06T00:43:56;95010.19;;;5.30;78.04
788;BME280;16074;42.708;23.312;2024-01-06T00:46:21;95015.19;;;5.32;78.25
788;BME280;16074;42.708;23.312;2024-01-06T00:48:46;95001.56;;;5.15;78.01
788;BME280;16074;42.708;23.312;2024-01-06T00:51:12;94987.28;;;5.04;78.92
788;BME280;16074;42.708;23.312;2024-01-06T00:53:37;94991.78;;;5.10;79.15
788;BME280;16074;42.708;23.312;2024-01-06T00:56:03;95003.66;;;5.11;80.11
788;BME280;16074;42.708;23.312;2024-01-06T00:58:28;95003.22;;;5.08;79.42
788;BME280;16074;42.708;23.312;2024-01-06T01:00:53;95004.88;;;4.92;78.93
788;BME280;16074;42.708;23.312;2024-01-06T01:03:19;94991.56;;;4.81;80.58
788;BME280;16074;42.708;23.312;2024-01-06T01:05:44;94996.38;;;4.92;80.08
788;BME280;16074;42.708;23.312;2024-01-06T01:08:09;94998.03;;;4.68;80.00
788;BME280;16074;42.708;23.312;2024-01-06T01:10:35;94984.84;;;4.71;80.65
788;BME280;16074;42.708;23.312;2024-01-06T01:13:00;94997.53;;;4.73;79.89
788;BME280;16074;42.708;23.312;2024-01-06T01:15:25;94995.63;;;4.59;80.71
788;BME280;16074;42.708;23.312;2024-01-06T01:17:51;94989.81;;;4.73;81.08
788;BME280;16074;42.708;23.312;2024-01-06T01:20:16;95006.88;;;4.66;80.97
788;BME280;16074;42.708;23.312;2024-01-06T01:22:42;94995.66;;;4.50;81.38
788;BME280;16074;42.708;23.312;2024-01-06T01:25:07;94989.53;;;4.68;80.70
788;BME280;16074;42.708;23.312;2024-01-06T01:27:36;94986.94;;;4.68;81.02
788;BME280;16074;42.708;23.312;2024-01-06T01:30:01;94985.00;;;4.78;81.17
788;BME280;16074;42.708;23.312;2024-01-06T01:32:27;94983.72;;;4.66;81.85
788;BME280;16074;42.708;23.312;2024-01-06T01:34:52;94973.59;;;4.72;81.68
788;BME280;16074;42.708;23.312;2024-01-06T01:37:17;94973.56;;;4.81;80.69
788;BME280;16074;42.708;23.312;2024-01-06T01:39:43;94972.63;;;4.73;80.88
788;BME280;16074;42.708;23.312;2024-01-06T01:42:09;94978.41;;;4.75;80.61
788;BME280;16074;42.708;23.312;2024-01-06T01:44:34;94963.78;;;4.76;82.70
788;BME280;16074;42.708;23.312;2024-01-06T01:47:00;94957.50;;;4.79;81.63
788;BME280;16074;42.708;23.312;2024-01-06T01:49:25;94959.09;;;4.80;80.08
788;BME280;16074;42.708;23.312;2024-01-06T01:51:52;94955.69;;;4.87;80.90
788;BME280;16074;42.708;23.312;2024-01-06T01:54:17;94959.09;;;4.80;79.92
788;BME280;16074;42.708;23.312;2024-01-06T01:56:43;94950.72;;;4.86;80.53
788;BME280;16074;42.708;23.312;2024-01-06T01:59:11;94948.00;;;4.79;81.43
788;BME280;16074;42.708;23.312;2024-01-06T02:01:36;94953.78;;;4.81;80.63
788;BME280;16074;42.708;23.312;2024-01-06T02:04:02;94953.53;;;4.68;81.12
788;BME280;16074;42.708;23.312;2024-01-06T02:06:28;94956.44;;;4.65;81.05
788;BME280;16074;42.708;23.312;2024-01-06T02:08:54;94950.16;;;4.67;81.55
788;BME280;16074;42.708;23.312;2024-01-06T02:11:19;94949.81;;;4.70;81.50
788;BME280;16074;42.708;23.312;2024-01-06T02:13:45;94933.41;;;4.80;82.35
788;BME280;16074;42.708;23.312;2024-01-06T02:16:10;94923.72;;;4.82;81.26
788;BME280;16074;42.708;23.312;2024-01-06T02:18:35;94926.09;;;4.91;81.33
788;BME280;16074;42.708;23.312;2024-01-06T02:21:02;94926.22;;;4.98;81.08
788;BME280;16074;42.708;23.312;2024-01-06T02:23:28;94925.59;;;4.96;80.52
788;BME280;16074;42.708;23.312;2024-01-06T02:25:54;94919.94;;;5.01;80.96
788;BME280;16074;42.708;23.312;2024-01-06T02:28:20;94913.88;;;4.93;80.42
788;BME280;16074;42.708;23.312;2024-01-06T02:30:45;94912.81;;;4.80;80.51
788;BME280;16074;42.708;23.312;2024-01-06T02:33:11;94901.50;;;4.89;80.39
788;BME280;16074;42.708;23.312;2024-01-06T02:35:36;94905.63;;;4.98;80.62
788;BME280;16074;42.708;23.312;2024-01-06T02:38:02;94902.06;;;5.07;80.77
788;BME280;16074;42.708;23.312;2024-01-06T02:40:27;94889.66;;;5.11;80.68
788;BME280;16074;42.708;23.312;2024-01-06T02:42:53;94898.34;;;5.10;78.53
788;BME280;16074;42.708;23.312;2024-01-06T02:45:18;94894.94;;;5.17;80.06
788;BME280;16074;42.708;23.312;2024-01-06T02:47:43;94890.91;;;5.15;80.42
788;BME280;16074;42.708;23.312;2024-01-06T02:50:09;94906.16;;;5.16;79.76
788;BME280;16074;42.708;23.312;2024-01-06T02:52:34;94904.53;;;5.24;78.28
788;BME280;16074;42.708;23.312;2024-01-06T02:54:59;94896.34;;;4.97;77.08
788;BME280;16074;42.708;23.312;2024-01-06T02:57:27;94882.50;;;4.98;78.27
788;BME280;16074;42.708;23.312;2024-01-06T02:59:52;94881.19;;;5.02;77.10
788;BME280;16074;42.708;23.312;2024-01-06T03:02:18;94879.34;;;4.88;77.95
788;BME280;16074;42.708;23.312;2024-01-06T03:04:43;94882.84;;;4.87;77.42
788;BME280;16074;42.708;23.312;2024-01-06T03:07:08;94874.81;;;4.90;78.84
788;BME280;16074;42.708;23.312;2024-01-06T03:09:34;94879.69;;;4.85;77.96
788;BME280;16074;42.708;23.312;2024-01-06T03:11:59;94870.53;;;4.82;76.39
788;BME280;16074;42.708;23.312;2024-01-06T03:14:24;94866.63;;;4.86;77.45
788;BME280;16074;42.708;23.312;2024-01-06T03:16:50;94870.81;;;4.87;76.18
788;BME280;16074;42.708;23.312;2024-01-06T03:19:15;94874.53;;;4.85;75.10
788;BME280;16074;42.708;23.312;2024-01-06T03:21:40;94862.63;;;4.84;75.35
788;BME280;16074;42.708;23.312;2024-01-06T03:24:07;94863.25;;;4.86;75.60
788;BME280;16074;42.708;23.312;2024-01-06T03:26:34;94868.69;;;4.91;75.26
788;BME280;16074;42.708;23.312;2024-01-06T03:28:59;94862.91;;;4.89;75.66
788;BME280;16074;42.708;23.312;2024-01-06T03:31:25;94864.19;;;4.93;74.51
788;BME280;16074;42.708;23.312;2024-01-06T03:33:50;94864.03;;;4.94;74.73
788;BME280;16074;42.708;23.312;2024-01-06T03:36:17;94857.56;;;4.99;74.83
788;BME280;16074;42.708;23.312;2024-01-06T03:38:43;94863.19;;;5.02;74.69
788;BME280;16074;42.708;23.312;2024-01-06T03:41:08;94865.22;;;5.07;76.15
788;BME280;16074;42.708;23.312;2024-01-06T03:43:34;94858.97;;;5.09;73.77
788;BME280;16074;42.708;23.312;2024-01-06T03:45:59;94860.38;;;5.12;75.05
788;BME280;16074;42.708;23.312;2024-01-06T03:48:25;94866.19;;;5.06;74.33
788;BME280;16074;42.708;23.312;2024-01-06T03:50:51;94863.34;;;5.01;74.81
788;BME280;16074;42.708;23.312;2024-01-06T03:53:16;94865.56;;;5.04;76.65
788;BME280;16074;42.708;23.312;2024-01-06T03:55:41;94867.41;;;4.95;75.68
788;BME280;16074;42.708;23.312;2024-01-06T03:58:07;94862.63;;;5.15;74.15
788;BME280;16074;42.708;23.312;2024-01-06T04:00:32;94854.81;;;5.00;75.57
788;BME280;16074;42.708;23.312;2024-01-06T04:02:57;94856.38;;;5.09;76.61
788;BME280;16074;42.708;23.312;2024-01-06T04:05:23;94848.94;;;5.14;74.89
788;BME280;16074;42.708;23.312;2024-01-06T04:07:48;94863.41;;;5.15;76.26
788;BME280;16074;42.708;23.312;2024-01-06T04:10:14;94852.19;;;5.08;75.77
788;BME280;16074;42.708;23.312;2024-01-06T04:12:42;94857.63;;;5.13;76.71
788;BME280;16074;42.708;23.312;2024-01-06T04:15:07;94850.69;;;5.14;76.00
788;BME280;16074;42.708;23.312;2024-01-06T04:17:33;94859.56;;;5.11;77.48
788;BME280;16074;42.708;23.312;2024-01-06T04:19:58;94865.69;;;5.10;76.72
788;BME280;16074;42.708;23.312;2024-01-06T04:22:24;94864.91;;;5.10;77.42
788;BME280;16074;42.708;23.312;2024-01-06T04:24:49;94849.19;;;5.05;77.49
788;BME280;16074;42.708;23.312;2024-01-06T04:27:14;94851.03;;;4.88;77.27
788;BME280;16074;42.708;23.312;2024-01-06T04:29:40;94858.28;;;4.84;76.76
788;BME280;16074;42.708;23.312;2024-01-06T04:32:05;94870.63;;;4.58;77.46
788;BME280;16074;42.708;23.312;2024-01-06T04:34:32;94878.66;;;4.54;78.69
788;BME280;16074;42.708;23.312;2024-01-06T04:36:58;94883.00;;;4.62;78.70
788;BME280;16074;42.708;23.312;2024-01-06T04:39:23;94891.22;;;4.49;79.05
788;BME280;16074;42.708;23.312;2024-01-06T04:41:49;94887.50;;;4.52;79.74
788;BME280;16074;42.708;23.312;2024-01-06T04:44:14;94881.00;;;4.33;79.14
788;BME280;16074;42.708;23.312;2024-01-06T04:46:39;94883.91;;;4.30;79.10
788;BME280;16074;42.708;23.312;2024-01-06T04:49:05;94882.75;;;4.41;78.96
788;BME280;16074;42.708;23.312;2024-01-06T04:51:30;94889.16;;;4.45;79.23
788;BME280;16074;42.708;23.312;2024-01-06T04:53:56;94886.47;;;4.30;78.81
788;BME280;16074;42.708;23.312;2024-01-06T04:56:21;94880.72;;;4.20;79.37
788;BME280;16074;42.708;23.312;2024-01-06T04:58:46;94886.00;;;4.26;80.06
788;BME280;16074;42.708;23.312;2024-01-06T05:01:12;94889.22;;;4.28;79.91
788;BME280;16074;42.708;23.312;2024-01-06T05:03:37;94880.81;;;4.35;79.43
788;BME280;16074;42.708;23.312;2024-01-06T05:06:03;94881.81;;;4.34;80.03
788;BME280;16074;42.708;23.312;2024-01-06T05:08:28;94867.56;;;4.23;78.54
788;BME280;16074;42.708;23.312;2024-01-06T05:10:56;94858.41;;;4.12;79.08
788;BME280;16074;42.708;23.312;2024-01-06T05:13:21;94850.50;;;4.22;79.66
788;BME280;16074;42.708;23.312;2024-01-06T05:15:47;94862.41;;;4.23;78.74
788;BME280;16074;42.708;23.312;2024-01-06T05:18:12;94852.97;;;4.15;79.51
788;BME280;16074;42.708;23.312;2024-01-06T05:20:38;94855.84;;;4.12;78.65
788;BME280;16074;42.708;23.312;2024-01-06T05:23:05;94857.78;;;4.02;78.53
788;BME280;16074;42.708;23.312;2024-01-06T05:25:30;94854.91;;;3.97;79.12
788;BME280;16074;42.708;23.312;2024-01-06T05:27:55;94839.16;;;4.00;78.37
788;BME280;16074;42.708;23.312;2024-01-06T05:30:20;94842.72;;;3.99;79.69
788;BME280;16074;42.708;23.312;2024-01-06T05:32:46;94832.13;;;3.94;79.85
788;BME280;16074;42.708;23.312;2024-01-06T05:35:11;94843.88;;;3.88;77.54
788;BME280;16074;42.708;23.312;2024-01-06T05:37:37;94833.75;;;3.86;78.73
788;BME280;16074;42.708;23.312;2024-01-06T05:40:02;94841.81;;;3.75;78.35
788;BME280;16074;42.708;23.312;2024-01-06T05:42:29;94855.91;;;3.79;79.10
788;BME280;16074;42.708;23.312;2024-01-06T05:44:54;94830.25;;;3.79;78.22
788;BME280;16074;42.708;23.312;2024-01-06T05:47:20;94843.72;;;3.81;77.60
788;BME280;16074;42.708;23.312;2024-01-06T05:49:45;94845.63;;;3.79;76.54
788;BME280;16074;42.708;23.312;2024-01-06T05:52:11;94835.03;;;3.82;77.75
788;BME280;16074;42.708;23.312;2024-01-06T05:54:36;94838.09;;;3.86;75.51
788;BME280;16074;42.708;23.312;2024-01-06T05:57:05;94835.69;;;3.93;75.01
788;BME280;16074;42.708;23.312;2024-01-06T05:59:33;94844.00;;;3.95;75.28
788;BME280;16074;42.708;23.312;2024-01-06T06:01:58;94838.06;;;3.94;74.41
788;BME280;16074;42.708;23.312;2024-01-06T06:04:24;94830.22;;;3.96;75.40
788;BME280;16074;42.708;23.312;2024-01-06T06:06:49;94834.69;;;4.02;75.94
788;BME280;16074;42.708;23.312;2024-01-06T06:09:14;94831.16;;;4.03;75.82
788;BME280;16074;42.708;23.312;2024-01-06T06:11:40;94841.91;;;4.06;74.86
788;BME280;16074;42.708;23.312;2024-01-06T06:14:06;94826.97;;;4.02;75.09
788;BME280;16074;42.708;23.312;2024-01-06T06:16:31;94839.13;;;4.16;74.55
788;BME280;16074;42.708;23.312;2024-01-06T06:18:56;94830.34;;;4.10;73.70
788;BME280;16074;42.708;23.312;2024-01-06T06:21:25;94834.00;;;4.16;74.12
788;BME280;16074;42.708;23.312;2024-01-06T06:23:51;94835.31;;;4.04;72.91
788;BME280;16074;42.708;23.312;2024-01-06T06:26:16;94838.53;;;4.06;74.66
788;BME280;16074;42.708;23.312;2024-01-06T06:28:42;94837.25;;;4.10;74.56
788;BME280;16074;42.708;23.312;2024-01-06T06:31:07;94849.88;;;4.20;75.92
788;BME280;16074;42.708;23.312;2024-01-06T06:33:32;94856.00;;;4.19;74.18
788;BME280;16074;42.708;23.312;2024-01-06T06:36:01;94853.38;;;4.27;75.79
788;BME280;16074;42.708;23.312;2024-01-06T06:38:26;94850.31;;;4.31;75.99
788;BME280;16074;42.708;23.312;2024-01-06T06:40:52;94857.84;;;4.41;75.27
788;BME280;16074;42.708;23.312;2024-01-06T06:43:17;94834.16;;;4.23;75.14
788;BME280;16074;42.708;23.312;2024-01-06T06:45:43;94845.38;;;4.22;75.57
788;BME280;16074;42.708;23.312;2024-01-06T06:48:08;94839.06;;;4.41;74.74
788;BME280;16074;42.708;23.312;2024-01-06T06:50:34;94829.47;;;4.26;73.87
788;BME280;16074;42.708;23.312;2024-01-06T06:52:59;94845.31;;;4.38;74.34
788;BME280;16074;42.708;23.312;2024-01-06T06:55:26;94852.25;;;4.38;73.94
788;BME280;16074;42.708;23.312;2024-01-06T06:57:52;94846.91;;;4.47;73.40
788;BME280;16074;42.708;23.312;2024-01-06T07:00:18;94821.59;;;4.59;74.70
788;BME280;16074;42.708;23.312;2024-01-06T07:02:43;94852.44;;;4.67;72.73
788;BME280;16074;42.708;23.312;2024-01-06T07:05:09;94817.75;;;4.63;73.32
788;BME280;16074;42.708;23.312;2024-01-06T07:07:34;94825.25;;;4.73;72.20
788;BME280;16074;42.708;23.312;2024-01-06T07:10:01;94836.19;;;4.67;71.88
788;BME280;16074;42.708;23.312;2024-01-06T07:12:27;94838.38;;;4.78;72.63
788;BME280;16074;42.708;23.312;2024-01-06T07:14:52;94816.53;;;4.74;72.20
788;BME280;16074;42.708;23.312;2024-01-06T07:17:18;94841.75;;;4.79;71.35
788;BME280;16074;42.708;23.312;2024-01-06T07:19:43;94828.66;;;4.65;71.31
788;BME280;16074;42.708;23.312;2024-01-06T07:22:09;94837.00;;;4.67;71.41
788;BME280;16074;42.708;23.312;2024-01-06T07:24:34;94837.84;;;4.60;73.41
788;BME280;16074;42.708;23.312;2024-01-06T07:27:01;94815.59;;;4.75;73.35
788;BME280;16074;42.708;23.312;2024-01-06T07:29:27;94837.81;;;4.91;72.31
788;BME280;16074;42.708;23.312;2024-01-06T07:31:52;94830.25;;;4.97;71.79
788;BME280;16074;42.708;23.312;2024-01-06T07:34:17;94840.75;;;5.11;72.63
788;BME280;16074;42.708;23.312;2024-01-06T07:36:43;94824.47;;;5.18;71.51
788;BME280;16074;42.708;23.312;2024-01-06T07:39:08;94818.44;;;5.26;73.47
788;BME280;16074;42.708;23.312;2024-01-06T07:41:34;94831.03;;;5.44;71.72
788;BME280;16074;42.708;23.312;2024-01-06T07:43:59;94820.00;;;5.35;72.46
788;BME280;16074;42.708;23.312;2024-01-06T07:46:27;94825.94;;;5.36;72.30
788;BME280;16074;42.708;23.312;2024-01-06T07:48:52;94819.94;;;5.58;71.40
788;BME280;16074;42.708;23.312;2024-01-06T07:51:18;94819.94;;;5.58;71.96
788;BME280;16074;42.708;23.312;2024-01-06T07:53:43;94832.19;;;5.56;71.75
788;BME280;16074;42.708;23.312;2024-01-06T07:56:09;94838.34;;;5.70;71.22
788;BME280;16074;42.708;23.312;2024-01-06T07:58:34;94830.03;;;5.83;70.27
788;BME280;16074;42.708;23.312;2024-01-06T08:00:59;94836.69;;;5.77;71.11
788;BME280;16074;42.708;23.312;2024-01-06T08:03:25;94821.16;;;5.86;71.05
788;BME280;16074;42.708;23.312;2024-01-06T08:05:50;94828.75;;;6.02;70.48
788;BME280;16074;42.708;23.312;2024-01-06T08:08:15;94843.75;;;6.13;69.35
788;BME280;16074;42.708;23.312;2024-01-06T08:10:42;94835.59;;;6.24;68.96
788;BME280;16074;42.708;23.312;2024-01-06T08:13:07;94822.88;;;6.23;68.11
788;BME280;16074;42.708;23.312;2024-01-06T08:15:33;94833.28;;;6.15;69.17
788;BME280;16074;42.708;23.312;2024-01-06T08:17:59;94814.88;;;6.03;68.70
788;BME280;16074;42.708;23.312;2024-01-06T08:20:24;94846.13;;;5.85;69.12
788;BME280;16074;42.708;23.312;2024-01-06T08:22:49;94818.84;;;5.91;69.24
788;BME280;16074;42.708;23.312;2024-01-06T08:25:15;94809.91;;;5.64;70.96
788;BME280;16074;42.708;23.312;2024-01-06T08:27:45;94840.16;;;5.70;70.36
788;BME280;16074;42.708;23.312;2024-01-06T08:30:11;94813.75;;;5.68;70.63
788;BME280;16074;42.708;23.312;2024-01-06T08:32:37;94851.69;;;5.59;70.21
788;BME280;16074;42.708;23.312;2024-01-06T08:35:03;94813.25;;;5.87;69.81
788;BME280;16074;42.708;23.312;2024-01-06T08:37:29;94834.28;;;5.91;68.04
788;BME280;16074;42.708;23.312;2024-01-06T08:39:54;94812.13;;;6.19;68.45
788;BME280;16074;42.708;23.312;2024-01-06T08:42:19;94821.38;;;6.29;68.10
788;BME280;16074;42.708;23.312;2024-01-06T08:44:45;94835.50;;;6.33;67.77
788;BME280;16074;42.708;23.312;2024-01-06T08:47:11;94839.13;;;6.53;65.88
788;BME280;16074;42.708;23.312;2024-01-06T08:49:37;94814.47;;;6.51;67.37
788;BME280;16074;42.708;23.312;2024-01-06T08:52:03;94832.28;;;6.97;65.62
788;BME280;16074;42.708;23.312;2024-01-06T08:54:28;94807.94;;;6.84;65.95
788;BME280;16074;42.708;23.312;2024-01-06T08:56:54;94828.16;;;7.02;64.33
788;BME280;16074;42.708;23.312;2024-01-06T08:59:20;94803.94;;;6.82;64.78
788;BME280;16074;42.708;23.312;2024-01-06T09:01:45;94805.16;;;6.86;63.59
788;BME280;16074;42.708;23.312;2024-01-06T09:04:10;94816.47;;;6.34;64.75
788;BME280;16074;42.708;23.312;2024-01-06T09:06:38;94805.94;;;6.50;65.78
788;BME280;16074;42.708;23.312;2024-01-06T09:09:03;94791.91;;;6.53;65.46
788;BME280;16074;42.708;23.312;2024-01-06T09:11:28;94800.47;;;6.75;63.81
788;BME280;16074;42.708;23.312;2024-01-06T09:13:54;94787.69;;;6.66;63.94
788;BME280;16074;42.708;23.312;2024-01-06T09:16:19;94778.13;;;6.82;64.62
788;BME280;16074;42.708;23.312;2024-01-06T09:18:45;94790.91;;;6.90;64.20
788;BME280;16074;42.708;23.312;2024-01-06T09:21:10;94788.94;;;6.92;63.58
788;BME280;16074;42.708;23.312;2024-01-06T09:23:36;94770.31;;;6.97;64.23
788;BME280;16074;42.708;23.312;2024-01-06T09:26:19;94763.75;;;7.16;62.64
788;BME280;16074;42.708;23.312;2024-01-06T09:28:45;94781.25;;;7.20;62.34
788;BME280;16074;42.708;23.312;2024-01-06T09:31:11;94755.44;;;7.20;62.66
788;BME280;16074;42.708;23.312;2024-01-06T09:33:37;94753.16;;;7.32;62.34
788;BME280;16074;42.708;23.312;2024-01-06T09:36:02;94753.91;;;7.54;61.93
788;BME280;16074;42.708;23.312;2024-01-06T09:38:28;94758.31;;;7.32;62.02
788;BME280;16074;42.708;23.312;2024-01-06T09:40:53;94750.16;;;7.28;62.43
788;BME280;16074;42.708;23.312;2024-01-06T09:43:20;94745.03;;;7.35;61.71
788;BME280;16074;42.708;23.312;2024-01-06T09:45:51;94736.81;;;7.53;61.28
788;BME280;16074;42.708;23.312;2024-01-06T09:48:28;94741.16;;;7.52;61.01
788;BME280;16074;42.708;23.312;2024-01-06T09:50:56;94732.84;;;7.57;60.24
788;BME280;16074;42.708;23.312;2024-01-06T09:53:23;94723.19;;;7.38;61.62
788;BME280;16074;42.708;23.312;2024-01-06T09:55:55;94730.81;;;7.46;60.83
788;BME280;16074;42.708;23.312;2024-01-06T09:58:21;94718.41;;;7.34;61.47
788;BME280;16074;42.708;23.312;2024-01-06T10:00:48;94724.72;;;7.60;61.51
788;BME280;16074;42.708;23.312;2024-01-06T10:03:14;94712.97;;;7.51;60.75
788;BME280;16074;42.708;23.312;2024-01-06T10:05:40;94705.00;;;7.52;60.70
788;BME280;16074;42.708;23.312;2024-01-06T10:08:05;94694.00;;;7.72;60.51
788;BME280;16074;42.708;23.312;2024-01-06T10:10:33;94712.06;;;7.65;59.34
788;BME280;16074;42.708;23.312;2024-01-06T10:12:59;94683.88;;;7.42;60.20
788;BME280;16074;42.708;23.312;2024-01-06T10:15:25;94706.28;;;7.63;59.42
788;BME280;16074;42.708;23.312;2024-01-06T10:17:50;94699.72;;;7.67;60.49
788;BME280;16074;42.708;23.312;2024-01-06T10:20:19;94684.84;;;7.69;60.51
788;BME280;16074;42.708;23.312;2024-01-06T10:22:45;94686.91;;;7.81;59.69
788;BME280;16074;42.708;23.312;2024-01-06T10:25:11;94687.44;;;7.69;59.92
788;BME280;16074;42.708;23.312;2024-01-06T10:27:38;94675.38;;;7.83;59.70
788;BME280;16074;42.708;23.312;2024-01-06T10:30:08;94672.97;;;7.82;58.74
788;BME280;16074;42.708;23.312;2024-01-06T10:32:35;94653.66;;;7.77;59.74
788;BME280;16074;42.708;23.312;2024-01-06T10:35:02;94670.38;;;7.82;59.62
788;BME280;16074;42.708;23.312;2024-01-06T10:37:28;94646.19;;;7.96;60.20
788;BME280;16074;42.708;23.312;2024-01-06T10:40:14;94650.47;;;8.24;57.46
788;BME280;16074;42.708;23.312;2024-01-06T10:42:41;94651.53;;;8.43;57.27
788;BME280;16074;42.708;23.312;2024-01-06T10:45:09;94651.88;;;8.33;57.30
788;BME280;16074;42.708;23.312;2024-01-06T10:47:36;94651.53;;;8.43;57.26
788;BME280;16074;42.708;23.312;2024-01-06T10:50:01;94639.00;;;8.46;56.36
788;BME280;16074;42.708;23.312;2024-01-06T10:52:27;94629.28;;;8.55;56.87
788;BME280;16074;42.708;23.312;2024-01-06T10:54:56;94637.81;;;8.62;55.70
788;BME280;16074;42.708;23.312;2024-01-06T10:57:24;94627.28;;;8.70;56.37
788;BME280;16074;42.708;23.312;2024-01-06T10:59:51;94628.69;;;8.73;56.78
788;BME280;16074;42.708;23.312;2024-01-06T11:02:17;94605.97;;;8.88;56.59
788;BME280;16074;42.708;23.312;2024-01-06T11:04:47;94625.69;;;8.82;56.03
788;BME280;16074;42.708;23.312;2024-01-06T11:07:17;94596.59;;;8.94;56.54
788;BME280;16074;42.708;23.312;2024-01-06T11:09:50;94609.13;;;9.10;55.66
788;BME280;16074;42.708;23.312;2024-01-06T11:12:18;94609.50;;;9.27;54.87
788;BME280;16074;42.708;23.312;2024-01-06T11:14:44;94587.91;;;9.46;55.38
788;BME280;16074;42.708;23.312;2024-01-06T11:17:11;94600.50;;;9.43;54.61
788;BME280;16074;42.708;23.312;2024-01-06T11:24:53;94592.66;;;9.69;54.85
788;BME280;16074;42.708;23.312;2024-01-06T11:27:20;94582.19;;;9.89;53.96
788;BME280;16074;42.708;23.312;2024-01-06T11:29:48;94581.78;;;9.86;53.39
788;BME280;16074;42.708;23.312;2024-01-06T11:32:17;94560.09;;;9.80;55.02
788;BME280;16074;42.708;23.312;2024-01-06T11:34:55;94584.88;;;10.08;54.04
788;BME280;16074;42.708;23.312;2024-01-06T11:38:09;94562.66;;;10.50;53.70
788;BME280;16074;42.708;23.312;2024-01-06T11:40:24;94547.00;;;10.89;51.95
788;BME280;16074;42.708;23.312;2024-01-06T11:45:34;94533.56;;;10.73;50.98
788;BME280;16074;42.708;23.312;2024-01-06T11:48:04;94516.69;;;10.57;52.91
788;BME280;16074;42.708;23.312;2024-01-06T11:50:35;94530.53;;;10.76;51.87
788;BME280;16074;42.708;23.312;2024-01-06T11:53:02;94515.81;;;11.07;51.72
788;BME280;16074;42.708;23.312;2024-01-06T11:55:28;94506.00;;;11.28;51.13
788;BME280;16074;42.708;23.312;2024-01-06T11:57:57;94523.56;;;10.70;50.77
788;BME280;16074;42.708;23.312;2024-01-06T12:00:27;94495.34;;;10.99;51.81
788;BME280;16074;42.708;23.312;2024-01-06T12:02:56;94508.69;;;11.39;50.65
788;BME280;16074;42.708;23.312;2024-01-06T12:05:22;94504.72;;;11.18;50.73
788;BME280;16074;42.708;23.312;2024-01-06T12:07:54;94464.28;;;11.23;50.61
788;BME280;16074;42.708;23.312;2024-01-06T12:10:24;94479.91;;;10.86;51.41
788;BME280;16074;42.708;23.312;2024-01-06T12:13:04;94447.28;;;10.71;52.79
788;BME280;16074;42.708;23.312;2024-01-06T12:15:32;94468.53;;;10.62;52.10
788;BME280;16074;42.708;23.312;2024-01-06T12:17:58;94472.22;;;10.29;53.38
788;BME280;16074;42.708;23.312;2024-01-06T12:20:24;94472.06;;;10.49;52.75
788;BME280;16074;42.708;23.312;2024-01-06T12:22:54;94473.69;;;10.43;52.38
788;BME280;16074;42.708;23.312;2024-01-06T12:25:24;94478.53;;;10.40;52.82
788;BME280;16074;42.708;23.312;2024-01-06T12:27:51;94488.28;;;10.12;53.47
788;BME280;16074;42.708;23.312;2024-01-06T12:30:18;94489.16;;;10.00;54.81
788;BME280;16074;42.708;23.312;2024-01-06T12:32:45;94489.38;;;9.98;54.45
788;BME280;16074;42.708;23.312;2024-01-06T12:35:11;94497.81;;;10.19;54.50
788;BME280;16074;42.708;23.312;2024-01-06T12:37:37;94499.22;;;9.89;55.83
788;BME280;16074;42.708;23.312;2024-01-06T12:40:03;94485.44;;;9.57;56.12
788;BME280;16074;42.708;23.312;2024-01-06T12:42:29;94493.38;;;9.62;56.31
788;BME280;16074;42.708;23.312;2024-01-06T12:44:54;94475.97;;;9.38;57.72
788;BME280;16074;42.708;23.312;2024-01-06T12:47:19;94466.09;;;9.60;57.44
788;BME280;16074;42.708;23.312;2024-01-06T12:49:45;94480.31;;;9.82;56.89
788;BME280;16074;42.708;23.312;2024-01-06T12:52:11;94447.34;;;9.89;56.39
788;BME280;16074;42.708;23.312;2024-01-06T12:54:36;94439.13;;;9.99;55.73
788;BME280;16074;42.708;23.312;2024-01-06T12:57:02;94453.72;;;10.19;56.24
788;BME280;16074;42.708;23.312;2024-01-06T12:59:27;94447.84;;;10.05;57.14
788;BME280;16074;42.708;23.312;2024-01-06T13:01:53;94447.97;;;10.17;56.36
788;BME280;16074;42.708;23.312;2024-01-06T13:04:18;94454.06;;;10.29;55.42
788;BME280;16074;42.708;23.312;2024-01-06T13:06:43;94449.94;;;10.46;55.50
788;BME280;16074;42.708;23.312;2024-01-06T13:09:09;94451.75;;;10.83;54.61
788;BME280;16074;42.708;23.312;2024-01-06T13:11:41;94457.72;;;11.20;52.50
788;BME280;16074;42.708;23.312;2024-01-06T13:14:06;94449.78;;;11.63;52.45
788;BME280;16074;42.708;23.312;2024-01-06T13:16:32;94445.31;;;12.13;50.61
788;BME280;16074;42.708;23.312;2024-01-06T13:18:58;94439.97;;;12.19;49.60
788;BME280;16074;42.708;23.312;2024-01-06T13:21:24;94446.91;;;12.61;48.79